sensor_id;sensor_type;location;lat;lon;timestamp;P1;durP1;ratioP1;P2;durP2;ratioP2
32760;SDS011;19126;47.472;7.850;2023-07-31T00:00:26;6.53;;;3.15;;
32760;SDS011;19126;47.472;7.850;2023-07-31T00:02:53;5.78;;;3.28;;
32760;SDS011;19126;47.472;7.850;2023-07-31T00:05:22;4.07;;;3.00;;
32760;SDS011;19126;47.472;7.850;2023-07-31T00:07:50;10.25;;;3.13;;
32760;SDS011;19126;47.472;7.850;2023-07-31T00:10:17;8.88;;;3.17;;
32760;SDS011;19126;47.472;7.850;2023-07-31T00:12:44;5.07;;;2.47;;
32760;SDS011;19126;47.472;7.850;2023-07-31T00:15:12;5.07;;;3.13;;
32760;SDS011;19126;47.472;7.850;2023-07-31T00:17:40;4.63;;;3.08;;
32760;SDS011;19126;47.472;7.850;2023-07-31T00:20:08;5.95;;;3.45;;
32760;SDS011;19126;47.472;7.850;2023-07-31T00:22:38;14.55;;;3.00;;
32760;SDS011;19126;47.472;7.850;2023-07-31T00:25:05;6.75;;;3.80;;
32760;SDS011;19126;47.472;7.850;2023-07-31T00:27:33;10.05;;;3.90;;
32760;SDS011;19126;47.472;7.850;2023-07-31T00:30:00;9.32;;;3.30;;
32760;SDS011;19126;47.472;7.850;2023-07-31T00:32:28;11.75;;;3.83;;
32760;SDS011;19126;47.472;7.850;2023-07-31T00:34:55;8.00;;;3.75;;
32760;SDS011;19126;47.472;7.850;2023-07-31T00:37:23;6.20;;;3.10;;
32760;SDS011;19126;47.472;7.850;2023-07-31T00:39:51;9.75;;;4.55;;
32760;SDS011;19126;47.472;7.850;2023-07-31T00:42:18;5.70;;;2.53;;
32760;SDS011;19126;47.472;7.850;2023-07-31T00:44:46;7.78;;;3.03;;
32760;SDS011;19126;47.472;7.850;2023-07-31T00:47:13;8.95;;;2.65;;
32760;SDS011;19126;47.472;7.850;2023-07-31T00:49:40;7.22;;;2.85;;
32760;SDS011;19126;47.472;7.850;2023-07-31T00:52:08;5.85;;;2.80;;
32760;SDS011;19126;47.472;7.850;2023-07-31T00:54:36;11.75;;;3.03;;
32760;SDS011;19126;47.472;7.850;2023-07-31T00:57:06;6.82;;;3.25;;
32760;SDS011;19126;47.472;7.850;2023-07-31T00:59:33;4.15;;;2.60;;
32760;SDS011;19126;47.472;7.850;2023-07-31T01:02:02;4.85;;;3.10;;
32760;SDS011;19126;47.472;7.850;2023-07-31T01:04:30;6.10;;;2.95;;
32760;SDS011;19126;47.472;7.850;2023-07-31T01:07:00;4.50;;;2.72;;
32760;SDS011;19126;47.472;7.850;2023-07-31T01:09:34;7.35;;;3.00;;
32760;SDS011;19126;47.472;7.850;2023-07-31T01:12:14;6.10;;;2.83;;
32760;SDS011;19126;47.472;7.850;2023-07-31T01:14:50;6.47;;;2.90;;
32760;SDS011;19126;47.472;7.850;2023-07-31T01:17:18;9.45;;;3.10;;
32760;SDS011;19126;47.472;7.850;2023-07-31T01:19:45;5.68;;;3.10;;
32760;SDS011;19126;47.472;7.850;2023-07-31T01:22:29;4.78;;;2.80;;
32760;SDS011;19126;47.472;7.850;2023-07-31T01:25:15;10.05;;;2.83;;
32760;SDS011;19126;47.472;7.850;2023-07-31T01:28:01;6.60;;;2.90;;
32760;SDS011;19126;47.472;7.850;2023-07-31T01:30:34;5.63;;;2.90;;
32760;SDS011;19126;47.472;7.850;2023-07-31T01:33:07;5.40;;;3.17;;
32760;SDS011;19126;47.472;7.850;2023-07-31T01:35:35;9.77;;;3.05;;
32760;SDS011;19126;47.472;7.850;2023-07-31T01:38:04;10.82;;;2.75;;
32760;SDS011;19126;47.472;7.850;2023-07-31T01:40:32;6.82;;;3.13;;
32760;SDS011;19126;47.472;7.850;2023-07-31T01:43:00;4.97;;;2.90;;
32760;SDS011;19126;47.472;7.850;2023-07-31T01:45:28;15.98;;;3.97;;
32760;SDS011;19126;47.472;7.850;2023-07-31T01:47:55;10.35;;;3.10;;
32760;SDS011;19126;47.472;7.850;2023-07-31T01:50:22;5.78;;;2.65;;
32760;SDS011;19126;47.472;7.850;2023-07-31T01:52:49;4.97;;;2.65;;
32760;SDS011;19126;47.472;7.850;2023-07-31T01:55:17;4.50;;;2.90;;
32760;SDS011;19126;47.472;7.850;2023-07-31T01:57:44;7.97;;;4.70;;
32760;SDS011;19126;47.472;7.850;2023-07-31T02:00:13;11.30;;;3.28;;
32760;SDS011;19126;47.472;7.850;2023-07-31T02:02:40;8.60;;;2.83;;
32760;SDS011;19126;47.472;7.850;2023-07-31T02:05:08;5.63;;;2.75;;
32760;SDS011;19126;47.472;7.850;2023-07-31T02:07:35;5.70;;;2.28;;
32760;SDS011;19126;47.472;7.850;2023-07-31T02:10:02;7.05;;;3.03;;
32760;SDS011;19126;47.472;7.850;2023-07-31T02:12:31;8.05;;;3.00;;
32760;SDS011;19126;47.472;7.850;2023-07-31T02:14:58;7.35;;;2.50;;
32760;SDS011;19126;47.472;7.850;2023-07-31T02:17:27;8.73;;;3.13;;
32760;SDS011;19126;47.472;7.850;2023-07-31T02:19:54;6.78;;;3.33;;
32760;SDS011;19126;47.472;7.850;2023-07-31T02:22:22;7.20;;;2.80;;
32760;SDS011;19126;47.472;7.850;2023-07-31T02:24:49;7.05;;;3.53;;
32760;SDS011;19126;47.472;7.850;2023-07-31T02:27:16;7.95;;;2.80;;
32760;SDS011;19126;47.472;7.850;2023-07-31T02:29:44;9.88;;;3.25;;
32760;SDS011;19126;47.472;7.850;2023-07-31T02:32:11;6.28;;;3.45;;
32760;SDS011;19126;47.472;7.850;2023-07-31T02:34:40;3.97;;;2.97;;
32760;SDS011;19126;47.472;7.850;2023-07-31T02:37:07;8.88;;;3.13;;
32760;SDS011;19126;47.472;7.850;2023-07-31T02:39:34;11.40;;;3.03;;
32760;SDS011;19126;47.472;7.850;2023-07-31T02:42:02;7.55;;;3.00;;
32760;SDS011;19126;47.472;7.850;2023-07-31T02:44:29;5.32;;;3.15;;
32760;SDS011;19126;47.472;7.850;2023-07-31T02:46:57;11.35;;;2.92;;
32760;SDS011;19126;47.472;7.850;2023-07-31T02:49:24;6.07;;;2.40;;
32760;SDS011;19126;47.472;7.850;2023-07-31T02:51:53;5.90;;;3.05;;
32760;SDS011;19126;47.472;7.850;2023-07-31T02:54:20;5.13;;;3.05;;
32760;SDS011;19126;47.472;7.850;2023-07-31T02:56:49;8.70;;;3.10;;
32760;SDS011;19126;47.472;7.850;2023-07-31T02:59:16;5.85;;;3.38;;
32760;SDS011;19126;47.472;7.850;2023-07-31T03:01:44;10.98;;;3.55;;
32760;SDS011;19126;47.472;7.850;2023-07-31T03:04:11;7.78;;;2.90;;
32760;SDS011;19126;47.472;7.850;2023-07-31T03:06:38;5.75;;;2.67;;
32760;SDS011;19126;47.472;7.850;2023-07-31T03:09:07;3.33;;;2.72;;
32760;SDS011;19126;47.472;7.850;2023-07-31T03:11:34;7.70;;;3.22;;
32760;SDS011;19126;47.472;7.850;2023-07-31T03:14:02;5.18;;;2.90;;
32760;SDS011;19126;47.472;7.850;2023-07-31T03:16:29;3.85;;;2.90;;
32760;SDS011;19126;47.472;7.850;2023-07-31T03:18:56;7.18;;;2.53;;
32760;SDS011;19126;47.472;7.850;2023-07-31T03:21:24;6.80;;;3.28;;
32760;SDS011;19126;47.472;7.850;2023-07-31T03:23:51;10.68;;;3.30;;
32760;SDS011;19126;47.472;7.850;2023-07-31T03:26:19;4.55;;;2.90;;
32760;SDS011;19126;47.472;7.850;2023-07-31T03:28:47;6.35;;;3.08;;
32760;SDS011;19126;47.472;7.850;2023-07-31T03:31:14;5.40;;;3.25;;
32760;SDS011;19126;47.472;7.850;2023-07-31T03:33:42;9.85;;;3.20;;
32760;SDS011;19126;47.472;7.850;2023-07-31T03:36:09;4.35;;;3.15;;
32760;SDS011;19126;47.472;7.850;2023-07-31T03:38:36;9.90;;;4.15;;
32760;SDS011;19126;47.472;7.850;2023-07-31T03:41:03;10.45;;;3.17;;
32760;SDS011;19126;47.472;7.850;2023-07-31T03:43:32;5.63;;;2.90;;
32760;SDS011;19126;47.472;7.850;2023-07-31T03:46:00;5.03;;;3.00;;
32760;SDS011;19126;47.472;7.850;2023-07-31T03:48:27;5.43;;;2.88;;
32760;SDS011;19126;47.472;7.850;2023-07-31T03:50:55;3.92;;;2.75;;
32760;SDS011;19126;47.472;7.850;2023-07-31T03:53:22;4.20;;;3.20;;
32760;SDS011;19126;47.472;7.850;2023-07-31T03:55:50;6.90;;;3.45;;
32760;SDS011;19126;47.472;7.850;2023-07-31T03:58:17;7.25;;;3.47;;
32760;SDS011;19126;47.472;7.850;2023-07-31T04:00:46;8.88;;;3.20;;
32760;SDS011;19126;47.472;7.850;2023-07-31T04:03:14;8.38;;;3.20;;
32760;SDS011;19126;47.472;7.850;2023-07-31T04:05:41;8.52;;;3.55;;
32760;SDS011;19126;47.472;7.850;2023-07-31T04:08:08;6.40;;;3.22;;
32760;SDS011;19126;47.472;7.850;2023-07-31T04:10:36;6.68;;;3.05;;
32760;SDS011;19126;47.472;7.850;2023-07-31T04:13:03;10.75;;;3.00;;
32760;SDS011;19126;47.472;7.850;2023-07-31T04:15:30;5.13;;;2.95;;
32760;SDS011;19126;47.472;7.850;2023-07-31T04:17:59;8.48;;;3.42;;
32760;SDS011;19126;47.472;7.850;2023-07-31T04:20:26;8.90;;;3.30;;
32760;SDS011;19126;47.472;7.850;2023-07-31T04:22:53;4.75;;;2.72;;
32760;SDS011;19126;47.472;7.850;2023-07-31T04:25:21;6.15;;;3.20;;
32760;SDS011;19126;47.472;7.850;2023-07-31T04:27:48;10.18;;;3.42;;
32760;SDS011;19126;47.472;7.850;2023-07-31T04:30:15;11.02;;;3.45;;
32760;SDS011;19126;47.472;7.850;2023-07-31T04:32:43;11.93;;;3.70;;
32760;SDS011;19126;47.472;7.850;2023-07-31T04:35:12;13.88;;;4.72;;
32760;SDS011;19126;47.472;7.850;2023-07-31T04:37:39;6.47;;;3.40;;
32760;SDS011;19126;47.472;7.850;2023-07-31T04:40:07;10.68;;;3.65;;
32760;SDS011;19126;47.472;7.850;2023-07-31T04:42:35;6.20;;;3.40;;
32760;SDS011;19126;47.472;7.850;2023-07-31T04:45:02;6.45;;;3.22;;
32760;SDS011;19126;47.472;7.850;2023-07-31T04:47:31;8.43;;;3.75;;
32760;SDS011;19126;47.472;7.850;2023-07-31T04:49:59;11.07;;;3.30;;
32760;SDS011;19126;47.472;7.850;2023-07-31T04:52:28;6.50;;;3.10;;
32760;SDS011;19126;47.472;7.850;2023-07-31T04:54:55;5.90;;;2.97;;
32760;SDS011;19126;47.472;7.850;2023-07-31T04:57:23;5.18;;;3.38;;
32760;SDS011;19126;47.472;7.850;2023-07-31T04:59:50;8.55;;;3.33;;
32760;SDS011;19126;47.472;7.850;2023-07-31T05:02:17;5.57;;;3.40;;
32760;SDS011;19126;47.472;7.850;2023-07-31T05:04:45;7.07;;;3.42;;
32760;SDS011;19126;47.472;7.850;2023-07-31T05:07:12;10.00;;;3.85;;
32760;SDS011;19126;47.472;7.850;2023-07-31T05:09:41;11.32;;;4.22;;
32760;SDS011;19126;47.472;7.850;2023-07-31T05:12:08;7.43;;;3.30;;
32760;SDS011;19126;47.472;7.850;2023-07-31T05:14:36;8.52;;;3.58;;
32760;SDS011;19126;47.472;7.850;2023-07-31T05:17:03;10.38;;;4.35;;
32760;SDS011;19126;47.472;7.850;2023-07-31T05:19:31;12.13;;;3.58;;
32760;SDS011;19126;47.472;7.850;2023-07-31T05:21:58;6.25;;;3.22;;
32760;SDS011;19126;47.472;7.850;2023-07-31T05:24:26;7.93;;;3.80;;
32760;SDS011;19126;47.472;7.850;2023-07-31T05:26:56;5.22;;;3.45;;
32760;SDS011;19126;47.472;7.850;2023-07-31T05:29:23;6.28;;;3.60;;
32760;SDS011;19126;47.472;7.850;2023-07-31T05:31:51;9.82;;;3.42;;
32760;SDS011;19126;47.472;7.850;2023-07-31T05:34:18;6.97;;;3.22;;
32760;SDS011;19126;47.472;7.850;2023-07-31T05:36:45;5.93;;;3.17;;
32760;SDS011;19126;47.472;7.850;2023-07-31T05:39:13;10.45;;;3.38;;
32760;SDS011;19126;47.472;7.850;2023-07-31T05:41:40;6.82;;;3.67;;
32760;SDS011;19126;47.472;7.850;2023-07-31T05:44:09;9.38;;;3.88;;
32760;SDS011;19126;47.472;7.850;2023-07-31T05:46:36;13.82;;;3.90;;
32760;SDS011;19126;47.472;7.850;2023-07-31T05:49:03;8.95;;;3.20;;
32760;SDS011;19126;47.472;7.850;2023-07-31T05:51:31;10.52;;;3.90;;
32760;SDS011;19126;47.472;7.850;2023-07-31T05:53:58;8.13;;;3.97;;
32760;SDS011;19126;47.472;7.850;2023-07-31T05:56:25;11.48;;;3.72;;
32760;SDS011;19126;47.472;7.850;2023-07-31T05:58:53;13.90;;;4.07;;
32760;SDS011;19126;47.472;7.850;2023-07-31T06:01:23;9.35;;;4.32;;
32760;SDS011;19126;47.472;7.850;2023-07-31T06:03:51;12.20;;;3.55;;
32760;SDS011;19126;47.472;7.850;2023-07-31T06:06:18;8.63;;;3.40;;
32760;SDS011;19126;47.472;7.850;2023-07-31T06:08:45;9.90;;;3.65;;
32760;SDS011;19126;47.472;7.850;2023-07-31T06:11:12;9.60;;;3.45;;
32760;SDS011;19126;47.472;7.850;2023-07-31T06:13:40;6.20;;;3.17;;
32760;SDS011;19126;47.472;7.850;2023-07-31T06:16:09;10.27;;;3.60;;
32760;SDS011;19126;47.472;7.850;2023-07-31T06:18:38;9.10;;;3.40;;
32760;SDS011;19126;47.472;7.850;2023-07-31T06:21:05;7.95;;;3.42;;
32760;SDS011;19126;47.472;7.850;2023-07-31T06:23:33;10.15;;;3.90;;
32760;SDS011;19126;47.472;7.850;2023-07-31T06:26:00;6.53;;;3.58;;
32760;SDS011;19126;47.472;7.850;2023-07-31T06:28:27;14.68;;;3.67;;
32760;SDS011;19126;47.472;7.850;2023-07-31T06:30:55;18.50;;;3.47;;
32760;SDS011;19126;47.472;7.850;2023-07-31T06:33:23;10.68;;;3.35;;
32760;SDS011;19126;47.472;7.850;2023-07-31T06:35:51;12.07;;;3.42;;
32760;SDS011;19126;47.472;7.850;2023-07-31T06:38:21;4.78;;;2.58;;
32760;SDS011;19126;47.472;7.850;2023-07-31T06:40:51;7.35;;;3.20;;
32760;SDS011;19126;47.472;7.850;2023-07-31T06:43:19;16.33;;;3.42;;
32760;SDS011;19126;47.472;7.850;2023-07-31T06:45:46;18.40;;;3.45;;
32760;SDS011;19126;47.472;7.850;2023-07-31T06:48:15;9.77;;;3.63;;
32760;SDS011;19126;47.472;7.850;2023-07-31T06:50:43;9.02;;;3.75;;
32760;SDS011;19126;47.472;7.850;2023-07-31T06:53:11;8.13;;;4.55;;
32760;SDS011;19126;47.472;7.850;2023-07-31T06:55:39;14.23;;;5.45;;
32760;SDS011;19126;47.472;7.850;2023-07-31T06:58:06;10.68;;;4.80;;
32760;SDS011;19126;47.472;7.850;2023-07-31T07:00:33;12.63;;;4.22;;
32760;SDS011;19126;47.472;7.850;2023-07-31T07:03:01;10.02;;;4.63;;
32760;SDS011;19126;47.472;7.850;2023-07-31T07:05:28;9.25;;;4.43;;
32760;SDS011;19126;47.472;7.850;2023-07-31T07:07:55;8.40;;;5.05;;
32760;SDS011;19126;47.472;7.850;2023-07-31T07:10:24;8.05;;;4.00;;
32760;SDS011;19126;47.472;7.850;2023-07-31T07:12:52;8.60;;;3.95;;
32760;SDS011;19126;47.472;7.850;2023-07-31T07:15:21;10.23;;;3.55;;
32760;SDS011;19126;47.472;7.850;2023-07-31T07:17:48;10.57;;;2.97;;
32760;SDS011;19126;47.472;7.850;2023-07-31T07:20:15;6.53;;;3.00;;
32760;SDS011;19126;47.472;7.850;2023-07-31T07:22:44;7.00;;;2.95;;
32760;SDS011;19126;47.472;7.850;2023-07-31T07:25:11;7.82;;;2.47;;
32760;SDS011;19126;47.472;7.850;2023-07-31T07:27:40;6.10;;;2.42;;
32760;SDS011;19126;47.472;7.850;2023-07-31T07:30:09;7.30;;;2.85;;
32760;SDS011;19126;47.472;7.850;2023-07-31T07:32:36;8.25;;;2.67;;
32760;SDS011;19126;47.472;7.850;2023-07-31T07:35:04;6.50;;;2.20;;
32760;SDS011;19126;47.472;7.850;2023-07-31T07:37:33;7.00;;;2.55;;
32760;SDS011;19126;47.472;7.850;2023-07-31T07:40:00;6.68;;;2.33;;
32760;SDS011;19126;47.472;7.850;2023-07-31T07:42:28;10.90;;;2.33;;
32760;SDS011;19126;47.472;7.850;2023-07-31T07:44:56;8.13;;;2.67;;
32760;SDS011;19126;47.472;7.850;2023-07-31T07:47:24;7.15;;;2.28;;
32760;SDS011;19126;47.472;7.850;2023-07-31T07:49:51;9.13;;;2.38;;
32760;SDS011;19126;47.472;7.850;2023-07-31T07:52:18;10.68;;;2.00;;
32760;SDS011;19126;47.472;7.850;2023-07-31T07:54:46;3.35;;;2.22;;
32760;SDS011;19126;47.472;7.850;2023-07-31T07:57:13;6.70;;;2.60;;
32760;SDS011;19126;47.472;7.850;2023-07-31T07:59:40;6.75;;;2.15;;
32760;SDS011;19126;47.472;7.850;2023-07-31T08:02:09;18.02;;;2.40;;
32760;SDS011;19126;47.472;7.850;2023-07-31T08:04:37;8.88;;;2.22;;
32760;SDS011;19126;47.472;7.850;2023-07-31T08:07:04;6.68;;;2.60;;
32760;SDS011;19126;47.472;7.850;2023-07-31T08:09:31;7.80;;;2.60;;
32760;SDS011;19126;47.472;7.850;2023-07-31T08:11:59;9.00;;;1.88;;
32760;SDS011;19126;47.472;7.850;2023-07-31T08:14:28;7.47;;;2.40;;
32760;SDS011;19126;47.472;7.850;2023-07-31T08:16:55;5.40;;;1.95;;
32760;SDS011;19126;47.472;7.850;2023-07-31T08:19:24;9.50;;;2.08;;
32760;SDS011;19126;47.472;7.850;2023-07-31T08:21:51;8.85;;;2.55;;
32760;SDS011;19126;47.472;7.850;2023-07-31T08:24:19;9.50;;;3.13;;
32760;SDS011;19126;47.472;7.850;2023-07-31T08:26:46;7.63;;;2.40;;
32760;SDS011;19126;47.472;7.850;2023-07-31T08:29:14;8.52;;;2.67;;
32760;SDS011;19126;47.472;7.850;2023-07-31T08:31:41;6.80;;;2.05;;
32760;SDS011;19126;47.472;7.850;2023-07-31T08:34:09;6.15;;;1.75;;
32760;SDS011;19126;47.472;7.850;2023-07-31T08:36:37;5.32;;;2.53;;
32760;SDS011;19126;47.472;7.850;2023-07-31T08:39:05;5.45;;;2.90;;
32760;SDS011;19126;47.472;7.850;2023-07-31T08:41:36;7.60;;;2.28;;
32760;SDS011;19126;47.472;7.850;2023-07-31T08:44:05;5.45;;;2.40;;
32760;SDS011;19126;47.472;7.850;2023-07-31T08:46:33;12.88;;;2.53;;
32760;SDS011;19126;47.472;7.850;2023-07-31T08:49:01;7.35;;;2.08;;
32760;SDS011;19126;47.472;7.850;2023-07-31T08:51:33;6.67;;;2.13;;
32760;SDS011;19126;47.472;7.850;2023-07-31T08:54:02;10.00;;;2.10;;
32760;SDS011;19126;47.472;7.850;2023-07-31T08:56:30;6.03;;;2.00;;
32760;SDS011;19126;47.472;7.850;2023-07-31T08:58:59;13.88;;;2.45;;
32760;SDS011;19126;47.472;7.850;2023-07-31T09:01:30;7.53;;;1.95;;
32760;SDS011;19126;47.472;7.850;2023-07-31T09:04:00;5.85;;;2.17;;
32760;SDS011;19126;47.472;7.850;2023-07-31T09:06:30;17.63;;;2.72;;
32760;SDS011;19126;47.472;7.850;2023-07-31T09:08:58;14.10;;;2.42;;
32760;SDS011;19126;47.472;7.850;2023-07-31T09:11:27;7.45;;;2.33;;
32760;SDS011;19126;47.472;7.850;2023-07-31T09:13:55;7.88;;;2.13;;
32760;SDS011;19126;47.472;7.850;2023-07-31T09:16:27;3.88;;;1.88;;
32760;SDS011;19126;47.472;7.850;2023-07-31T09:18:57;8.40;;;2.53;;
32760;SDS011;19126;47.472;7.850;2023-07-31T09:21:27;11.57;;;2.50;;
32760;SDS011;19126;47.472;7.850;2023-07-31T09:23:54;5.95;;;2.25;;
32760;SDS011;19126;47.472;7.850;2023-07-31T09:26:33;9.75;;;2.45;;
32760;SDS011;19126;47.472;7.850;2023-07-31T09:29:03;12.10;;;3.17;;
32760;SDS011;19126;47.472;7.850;2023-07-31T09:31:37;3.60;;;1.80;;
32760;SDS011;19126;47.472;7.850;2023-07-31T09:34:07;6.00;;;2.20;;
32760;SDS011;19126;47.472;7.850;2023-07-31T09:36:39;9.48;;;2.60;;
32760;SDS011;19126;47.472;7.850;2023-07-31T09:39:08;4.93;;;2.15;;
32760;SDS011;19126;47.472;7.850;2023-07-31T09:41:38;6.53;;;3.17;;
32760;SDS011;19126;47.472;7.850;2023-07-31T09:44:08;6.95;;;2.60;;
32760;SDS011;19126;47.472;7.850;2023-07-31T09:46:35;5.28;;;2.05;;
32760;SDS011;19126;47.472;7.850;2023-07-31T09:49:04;7.32;;;2.67;;
32760;SDS011;19126;47.472;7.850;2023-07-31T09:51:35;4.60;;;2.33;;
32760;SDS011;19126;47.472;7.850;2023-07-31T09:54:13;5.57;;;2.25;;
32760;SDS011;19126;47.472;7.850;2023-07-31T09:56:45;5.57;;;2.17;;
32760;SDS011;19126;47.472;7.850;2023-07-31T10:01:42;13.55;;;2.70;;
32760;SDS011;19126;47.472;7.850;2023-07-31T10:04:11;7.97;;;2.30;;
32760;SDS011;19126;47.472;7.850;2023-07-31T10:06:40;8.15;;;2.25;;
32760;SDS011;19126;47.472;7.850;2023-07-31T10:09:11;5.90;;;2.42;;
32760;SDS011;19126;47.472;7.850;2023-07-31T10:11:45;7.68;;;2.60;;
32760;SDS011;19126;47.472;7.850;2023-07-31T10:14:17;8.73;;;2.65;;
32760;SDS011;19126;47.472;7.850;2023-07-31T10:16:46;7.80;;;2.97;;
32760;SDS011;19126;47.472;7.850;2023-07-31T10:19:14;8.43;;;2.80;;
32760;SDS011;19126;47.472;7.850;2023-07-31T10:21:42;8.45;;;2.53;;
32760;SDS011;19126;47.472;7.850;2023-07-31T10:24:09;7.93;;;2.53;;
32760;SDS011;19126;47.472;7.850;2023-07-31T10:26:37;10.05;;;2.80;;
32760;SDS011;19126;47.472;7.850;2023-07-31T10:29:08;6.55;;;2.67;;
32760;SDS011;19126;47.472;7.850;2023-07-31T10:31:37;7.68;;;2.60;;
32760;SDS011;19126;47.472;7.850;2023-07-31T10:34:05;6.93;;;2.78;;
32760;SDS011;19126;47.472;7.850;2023-07-31T10:36:32;7.40;;;2.97;;
32760;SDS011;19126;47.472;7.850;2023-07-31T10:39:00;8.13;;;2.85;;
32760;SDS011;19126;47.472;7.850;2023-07-31T10:41:46;7.95;;;2.88;;
32760;SDS011;19126;47.472;7.850;2023-07-31T10:44:16;10.07;;;3.08;;
32760;SDS011;19126;47.472;7.850;2023-07-31T10:46:45;6.65;;;2.72;;
32760;SDS011;19126;47.472;7.850;2023-07-31T10:49:12;11.48;;;2.55;;
32760;SDS011;19126;47.472;7.850;2023-07-31T10:51:47;11.95;;;3.03;;
32760;SDS011;19126;47.472;7.850;2023-07-31T10:54:15;6.35;;;2.67;;
32760;SDS011;19126;47.472;7.850;2023-07-31T10:56:44;5.75;;;2.42;;
32760;SDS011;19126;47.472;7.850;2023-07-31T10:59:12;9.70;;;3.35;;
32760;SDS011;19126;47.472;7.850;2023-07-31T11:01:52;6.53;;;2.20;;
32760;SDS011;19126;47.472;7.850;2023-07-31T11:04:22;7.57;;;2.83;;
32760;SDS011;19126;47.472;7.850;2023-07-31T11:06:56;7.22;;;2.97;;
32760;SDS011;19126;47.472;7.850;2023-07-31T11:09:25;8.68;;;2.65;;
32760;SDS011;19126;47.472;7.850;2023-07-31T11:11:56;4.90;;;2.63;;
32760;SDS011;19126;47.472;7.850;2023-07-31T11:14:26;7.05;;;2.80;;
32760;SDS011;19126;47.472;7.850;2023-07-31T11:16:53;5.85;;;3.00;;
32760;SDS011;19126;47.472;7.850;2023-07-31T11:19:21;13.23;;;2.60;;
32760;SDS011;19126;47.472;7.850;2023-07-31T11:21:49;6.38;;;2.70;;
32760;SDS011;19126;47.472;7.850;2023-07-31T11:24:17;5.22;;;2.20;;
32760;SDS011;19126;47.472;7.850;2023-07-31T11:26:49;5.80;;;2.65;;
32760;SDS011;19126;47.472;7.850;2023-07-31T11:29:17;12.50;;;2.92;;
32760;SDS011;19126;47.472;7.850;2023-07-31T11:31:46;4.82;;;2.45;;
32760;SDS011;19126;47.472;7.850;2023-07-31T11:34:14;6.32;;;2.67;;
32760;SDS011;19126;47.472;7.850;2023-07-31T11:36:52;6.97;;;2.58;;
32760;SDS011;19126;47.472;7.850;2023-07-31T11:39:20;6.00;;;2.97;;
32760;SDS011;19126;47.472;7.850;2023-07-31T11:41:48;7.65;;;2.58;;
32760;SDS011;19126;47.472;7.850;2023-07-31T11:44:15;5.38;;;2.38;;
32760;SDS011;19126;47.472;7.850;2023-07-31T11:46:42;5.22;;;2.10;;
32760;SDS011;19126;47.472;7.850;2023-07-31T11:49:11;8.57;;;2.83;;
32760;SDS011;19126;47.472;7.850;2023-07-31T11:51:39;8.15;;;2.85;;
32760;SDS011;19126;47.472;7.850;2023-07-31T11:54:06;7.65;;;2.47;;
32760;SDS011;19126;47.472;7.850;2023-07-31T11:56:34;5.35;;;2.47;;
32760;SDS011;19126;47.472;7.850;2023-07-31T11:59:01;6.78;;;2.72;;
32760;SDS011;19126;47.472;7.850;2023-07-31T12:01:30;8.18;;;2.90;;
32760;SDS011;19126;47.472;7.850;2023-07-31T12:03:58;5.88;;;2.78;;
32760;SDS011;19126;47.472;7.850;2023-07-31T12:06:33;6.55;;;2.53;;
32760;SDS011;19126;47.472;7.850;2023-07-31T12:09:02;5.53;;;2.53;;
32760;SDS011;19126;47.472;7.850;2023-07-31T12:11:30;9.75;;;3.00;;
32760;SDS011;19126;47.472;7.850;2023-07-31T12:13:58;5.38;;;2.53;;
32760;SDS011;19126;47.472;7.850;2023-07-31T12:16:26;8.85;;;2.65;;
32760;SDS011;19126;47.472;7.850;2023-07-31T12:18:54;10.75;;;2.75;;
32760;SDS011;19126;47.472;7.850;2023-07-31T12:21:21;6.57;;;2.60;;
32760;SDS011;19126;47.472;7.850;2023-07-31T12:23:51;6.03;;;2.75;;
32760;SDS011;19126;47.472;7.850;2023-07-31T12:26:19;10.30;;;2.58;;
32760;SDS011;19126;47.472;7.850;2023-07-31T12:28:49;7.25;;;2.50;;
32760;SDS011;19126;47.472;7.850;2023-07-31T12:31:18;4.55;;;2.40;;
32760;SDS011;19126;47.472;7.850;2023-07-31T12:33:48;6.03;;;2.70;;
32760;SDS011;19126;47.472;7.850;2023-07-31T12:36:18;7.60;;;2.65;;
32760;SDS011;19126;47.472;7.850;2023-07-31T12:38:49;6.57;;;2.33;;
32760;SDS011;19126;47.472;7.850;2023-07-31T12:41:18;9.77;;;2.90;;
32760;SDS011;19126;47.472;7.850;2023-07-31T12:43:45;8.30;;;3.30;;
32760;SDS011;19126;47.472;7.850;2023-07-31T12:46:12;7.38;;;3.22;;
32760;SDS011;19126;47.472;7.850;2023-07-31T12:48:41;10.52;;;3.40;;
32760;SDS011;19126;47.472;7.850;2023-07-31T12:51:08;7.30;;;2.72;;
32760;SDS011;19126;47.472;7.850;2023-07-31T12:53:35;8.00;;;2.92;;
32760;SDS011;19126;47.472;7.850;2023-07-31T12:56:04;8.13;;;2.97;;
32760;SDS011;19126;47.472;7.850;2023-07-31T12:58:32;5.35;;;2.67;;
32760;SDS011;19126;47.472;7.850;2023-07-31T13:00:59;3.90;;;2.45;;
32760;SDS011;19126;47.472;7.850;2023-07-31T13:03:27;12.18;;;2.78;;
32760;SDS011;19126;47.472;7.850;2023-07-31T13:05:54;10.68;;;2.60;;
32760;SDS011;19126;47.472;7.850;2023-07-31T13:08:21;5.80;;;2.83;;
32760;SDS011;19126;47.472;7.850;2023-07-31T13:10:49;6.68;;;3.00;;
32760;SDS011;19126;47.472;7.850;2023-07-31T13:13:17;7.57;;;2.60;;
32760;SDS011;19126;47.472;7.850;2023-07-31T13:15:45;5.82;;;2.80;;
32760;SDS011;19126;47.472;7.850;2023-07-31T13:18:12;7.00;;;3.03;;
32760;SDS011;19126;47.472;7.850;2023-07-31T13:20:39;7.25;;;2.85;;
32760;SDS011;19126;47.472;7.850;2023-07-31T13:23:07;7.40;;;3.10;;
32760;SDS011;19126;47.472;7.850;2023-07-31T13:25:34;7.95;;;2.78;;
32760;SDS011;19126;47.472;7.850;2023-07-31T13:28:01;7.78;;;2.72;;
32760;SDS011;19126;47.472;7.850;2023-07-31T13:30:30;6.53;;;2.78;;
32760;SDS011;19126;47.472;7.850;2023-07-31T13:32:57;7.93;;;2.70;;
32760;SDS011;19126;47.472;7.850;2023-07-31T13:35:25;11.15;;;3.17;;
32760;SDS011;19126;47.472;7.850;2023-07-31T13:37:52;5.47;;;2.65;;
32760;SDS011;19126;47.472;7.850;2023-07-31T13:40:20;6.72;;;3.45;;
32760;SDS011;19126;47.472;7.850;2023-07-31T13:42:47;6.53;;;2.83;;
32760;SDS011;19126;47.472;7.850;2023-07-31T13:45:15;12.93;;;3.30;;
32760;SDS011;19126;47.472;7.850;2023-07-31T13:47:43;8.52;;;3.03;;
32760;SDS011;19126;47.472;7.850;2023-07-31T13:50:11;4.82;;;2.63;;
32760;SDS011;19126;47.472;7.850;2023-07-31T13:52:38;6.47;;;2.85;;
32760;SDS011;19126;47.472;7.850;2023-07-31T13:55:06;11.45;;;3.60;;
32760;SDS011;19126;47.472;7.850;2023-07-31T13:57:34;7.30;;;3.15;;
32760;SDS011;19126;47.472;7.850;2023-07-31T14:00:01;7.13;;;2.95;;
32760;SDS011;19126;47.472;7.850;2023-07-31T14:02:29;7.40;;;3.03;;
32760;SDS011;19126;47.472;7.850;2023-07-31T14:04:58;5.35;;;2.78;;
32760;SDS011;19126;47.472;7.850;2023-07-31T14:07:25;6.35;;;3.20;;
32760;SDS011;19126;47.472;7.850;2023-07-31T14:09:53;8.85;;;2.95;;
32760;SDS011;19126;47.472;7.850;2023-07-31T14:12:20;5.10;;;3.00;;
32760;SDS011;19126;47.472;7.850;2023-07-31T14:14:47;7.88;;;3.35;;
32760;SDS011;19126;47.472;7.850;2023-07-31T14:17:15;11.82;;;2.97;;
32760;SDS011;19126;47.472;7.850;2023-07-31T14:19:42;5.50;;;2.30;;
32760;SDS011;19126;47.472;7.850;2023-07-31T14:22:11;7.07;;;3.20;;
32760;SDS011;19126;47.472;7.850;2023-07-31T14:24:38;7.32;;;3.38;;
32760;SDS011;19126;47.472;7.850;2023-07-31T14:27:06;12.50;;;2.95;;
32760;SDS011;19126;47.472;7.850;2023-07-31T14:29:34;8.70;;;3.22;;
32760;SDS011;19126;47.472;7.850;2023-07-31T14:32:02;6.30;;;3.22;;
32760;SDS011;19126;47.472;7.850;2023-07-31T14:34:29;10.23;;;3.25;;
32760;SDS011;19126;47.472;7.850;2023-07-31T14:36:57;14.18;;;4.28;;
32760;SDS011;19126;47.472;7.850;2023-07-31T14:39:25;10.00;;;3.03;;
32760;SDS011;19126;47.472;7.850;2023-07-31T14:41:53;8.35;;;3.92;;
32760;SDS011;19126;47.472;7.850;2023-07-31T14:44:20;6.15;;;3.28;;
32760;SDS011;19126;47.472;7.850;2023-07-31T14:46:47;5.82;;;3.20;;
32760;SDS011;19126;47.472;7.850;2023-07-31T14:49:15;9.70;;;3.65;;
32760;SDS011;19126;47.472;7.850;2023-07-31T14:51:42;9.80;;;3.60;;
32760;SDS011;19126;47.472;7.850;2023-07-31T14:54:09;11.23;;;4.47;;